sensor_id;sensor_type;location;lat;lon;timestamp;pressure;altitude;pressure_sealevel;temperature;humidity
75895;BME280;64573;50.328;15.014;2023-08-06T03:49:21;97810.38;;;13.79;100.00
75895;BME280;64573;50.328;15.014;2023-08-06T07:52:03;97722.16;;;15.37;100.00
75895;BME280;64573;50.328;15.014;2023-08-06T08:04:45;97721.41;;;15.41;100.00
75895;BME280;64573;50.328;15.014;2023-08-06T09:14:12;97673.13;;;16.12;100.00
75895;BME280;64573;50.328;15.014;2023-08-06T09:24:22;97668.47;;;16.46;100.00
75895;BME280;64573;50.328;15.014;2023-08-06T09:26:48;97672.03;;;16.30;100.00
75895;BME280;64573;50.328;15.014;2023-08-06T09:29:14;97664.16;;;16.28;100.00
75895;BME280;64573;50.328;15.014;2023-08-06T09:31:44;97656.81;;;16.46;100.00
75895;BME280;64573;50.328;15.014;2023-08-06T09:36:41;97655.47;;;16.26;100.00
75895;BME280;64573;50.328;15.014;2023-08-06T09:39:14;97651.34;;;16.41;100.00
75895;BME280;64573;50.328;15.014;2023-08-06T09:41:40;97638.88;;;16.40;100.00
75895;BME280;64573;50.328;15.014;2023-08-06T09:46:33;97634.09;;;16.47;100.00
75895;BME280;64573;50.328;15.014;2023-08-06T09:48:58;97642.66;;;16.61;100.00
75895;BME280;64573;50.328;15.014;2023-08-06T09:51:24;97639.97;;;16.61;100.00
75895;BME280;64573;50.328;15.014;2023-08-06T09:53:50;97635.03;;;16.58;100.00
75895;BME280;64573;50.328;15.014;2023-08-06T09:56:17;97629.88;;;16.56;100.00
75895;BME280;64573;50.328;15.014;2023-08-06T09:58:43;97624.41;;;16.51;100.00
75895;BME280;64573;50.328;15.014;2023-08-06T10:01:10;97630.06;;;16.49;100.00
75895;BME280;64573;50.328;15.014;2023-08-06T10:03:36;97628.59;;;16.64;100.00
75895;BME280;64573;50.328;15.014;2023-08-06T10:06:02;97619.25;;;16.49;100.00
75895;BME280;64573;50.328;15.014;2023-08-06T10:08:32;97613.34;;;16.31;100.00
75895;BME280;64573;50.328;15.014;2023-08-06T10:10:58;97620.50;;;16.42;100.00
75895;BME280;64573;50.328;15.014;2023-08-06T10:13:24;97615.22;;;16.52;100.00
75895;BME280;64573;50.328;15.014;2023-08-06T10:15:50;97608.16;;;16.51;100.00
75895;BME280;64573;50.328;15.014;2023-08-06T10:18:16;97611.31;;;16.43;100.00
75895;BME280;64573;50.328;15.014;2023-08-06T10:20:46;97601.06;;;16.67;100.00
75895;BME280;64573;50.328;15.014;2023-08-06T10:23:11;97601.53;;;16.64;100.00
75895;BME280;64573;50.328;15.014;2023-08-06T10:25:42;97611.47;;;16.75;100.00
75895;BME280;64573;50.328;15.014;2023-08-06T10:28:09;97593.44;;;16.64;100.00
75895;BME280;64573;50.328;15.014;2023-08-06T10:30:44;97598.66;;;16.48;100.00
75895;BME280;64573;50.328;15.014;2023-08-06T10:33:10;97597.13;;;16.58;100.00
75895;BME280;64573;50.328;15.014;2023-08-06T10:35:46;97591.63;;;16.69;100.00
75895;BME280;64573;50.328;15.014;2023-08-06T10:38:20;97603.69;;;16.84;100.00
75895;BME280;64573;50.328;15.014;2023-08-06T10:43:32;97600.88;;;16.73;100.00
75895;BME280;64573;50.328;15.014;2023-08-06T10:46:01;97599.75;;;16.69;100.00
75895;BME280;64573;50.328;15.014;2023-08-06T10:48:38;97591.03;;;16.67;100.00
75895;BME280;64573;50.328;15.014;2023-08-06T10:51:08;97594.13;;;16.76;100.00
75895;BME280;64573;50.328;15.014;2023-08-06T10:53:34;97594.19;;;16.81;100.00
75895;BME280;64573;50.328;15.014;2023-08-06T10:56:12;97591.72;;;16.79;100.00
75895;BME280;64573;50.328;15.014;2023-08-06T10:58:38;97588.31;;;16.89;100.00
75895;BME280;64573;50.328;15.014;2023-08-06T11:01:03;97601.06;;;16.89;100.00
75895;BME280;64573;50.328;15.014;2023-08-06T11:03:29;97593.16;;;16.87;100.00
75895;BME280;64573;50.328;15.014;2023-08-06T11:05:54;97606.19;;;17.17;100.00
75895;BME280;64573;50.328;15.014;2023-08-06T11:08:24;97607.78;;;17.13;100.00
75895;BME280;64573;50.328;15.014;2023-08-06T11:10:50;97604.41;;;17.01;100.00
75895;BME280;64573;50.328;15.014;2023-08-06T11:13:18;97601.22;;;17.09;100.00
75895;BME280;64573;50.328;15.014;2023-08-06T11:15:48;97600.19;;;17.10;100.00
75895;BME280;64573;50.328;15.014;2023-08-06T11:18:14;97610.94;;;17.32;100.00
75895;BME280;64573;50.328;15.014;2023-08-06T11:20:39;97613.13;;;17.35;100.00
75895;BME280;64573;50.328;15.014;2023-08-06T11:23:05;97600.78;;;17.17;100.00
75895;BME280;64573;50.328;15.014;2023-08-06T11:25:31;97611.09;;;17.20;100.00
75895;BME280;64573;50.328;15.014;2023-08-06T11:30:26;97609.34;;;17.36;100.00
75895;BME280;64573;50.328;15.014;2023-08-06T11:32:52;97603.66;;;17.37;100.00
75895;BME280;64573;50.328;15.014;2023-08-06T11:35:17;97597.25;;;17.49;100.00
75895;BME280;64573;50.328;15.014;2023-08-06T11:37:44;97603.72;;;17.16;100.00
75895;BME280;64573;50.328;15.014;2023-08-06T11:40:11;97612.38;;;17.13;100.00
75895;BME280;64573;50.328;15.014;2023-08-06T11:42:37;97600.94;;;17.05;100.00
75895;BME280;64573;50.328;15.014;2023-08-06T11:45:03;97605.22;;;17.01;100.00
75895;BME280;64573;50.328;15.014;2023-08-06T11:47:30;97615.75;;;16.98;100.00
75895;BME280;64573;50.328;15.014;2023-08-06T11:49:55;97601.25;;;16.82;100.00
75895;BME280;64573;50.328;15.014;2023-08-06T11:52:22;97609.31;;;16.77;100.00
75895;BME280;64573;50.328;15.014;2023-08-06T11:55:05;97614.81;;;16.87;100.00
75895;BME280;64573;50.328;15.014;2023-08-06T11:57:33;97612.53;;;16.74;100.00
75895;BME280;64573;50.328;15.014;2023-08-06T12:00:11;97617.47;;;17.09;100.00
75895;BME280;64573;50.328;15.014;2023-08-06T12:02:39;97610.75;;;17.12;100.00
75895;BME280;64573;50.328;15.014;2023-08-06T12:05:11;97606.28;;;17.00;100.00
75895;BME280;64573;50.328;15.014;2023-08-06T12:07:38;97617.47;;;17.09;100.00
75895;BME280;64573;50.328;15.014;2023-08-06T12:10:05;97620.25;;;17.14;100.00
75895;BME280;64573;50.328;15.014;2023-08-06T12:12:30;97612.38;;;17.13;100.00
75895;BME280;64573;50.328;15.014;2023-08-06T12:14:56;97610.59;;;16.96;100.00
75895;BME280;64573;50.328;15.014;2023-08-06T12:17:22;97614.72;;;16.77;100.00
75895;BME280;64573;50.328;15.014;2023-08-06T12:19:48;97612.00;;;16.77;100.00
75895;BME280;64573;50.328;15.014;2023-08-06T12:22:14;97610.06;;;16.72;100.00
75895;BME280;64573;50.328;15.014;2023-08-06T12:24:43;97605.88;;;16.65;100.00
75895;BME280;64573;50.328;15.014;2023-08-06T12:27:10;97611.81;;;16.62;100.00
75895;BME280;64573;50.328;15.014;2023-08-06T12:29:36;97611.94;;;16.72;100.00
75895;BME280;64573;50.328;15.014;2023-08-06T12:32:03;97617.13;;;16.73;100.00
75895;BME280;64573;50.328;15.014;2023-08-06T12:34:28;97610.56;;;16.69;100.00
75895;BME280;64573;50.328;15.014;2023-08-06T12:36:54;97619.06;;;16.78;100.00
75895;BME280;64573;50.328;15.014;2023-08-06T12:39:19;97622.59;;;16.78;100.00
75895;BME280;64573;50.328;15.014;2023-08-06T12:41:45;97623.53;;;16.89;100.00
75895;BME280;64573;50.328;15.014;2023-08-06T12:44:12;97609.78;;;16.96;100.00
75895;BME280;64573;50.328;15.014;2023-08-06T12:46:37;97624.44;;;17.00;100.00
75895;BME280;64573;50.328;15.014;2023-08-06T12:49:02;97616.91;;;17.07;100.00
75895;BME280;64573;50.328;15.014;2023-08-06T12:51:28;97620.34;;;16.97;100.00
75895;BME280;64573;50.328;15.014;2023-08-06T12:53:53;97618.47;;;17.25;100.00
75895;BME280;64573;50.328;15.014;2023-08-06T12:58:43;97616.91;;;17.07;100.00
75895;BME280;64573;50.328;15.014;2023-08-06T13:01:09;97619.78;;;17.22;100.00
75895;BME280;64573;50.328;15.014;2023-08-06T13:03:35;97622.25;;;17.24;100.00
75895;BME280;64573;50.328;15.014;2023-08-06T13:06:00;97635.13;;;17.39;100.00
75895;BME280;64573;50.328;15.014;2023-08-06T13:08:26;97633.94;;;17.29;100.00
75895;BME280;64573;50.328;15.014;2023-08-06T13:10:51;97622.47;;;17.17;100.00
75895;BME280;64573;50.328;15.014;2023-08-06T13:13:19;97633.38;;;17.00;100.00
75895;BME280;64573;50.328;15.014;2023-08-06T13:15:45;97643.06;;;17.18;100.00
75895;BME280;64573;50.328;15.014;2023-08-06T13:18:10;97641.81;;;17.04;100.00
75895;BME280;64573;50.328;15.014;2023-08-06T13:20:38;97628.97;;;16.94;100.00
75895;BME280;64573;50.328;15.014;2023-08-06T13:23:05;97618.88;;;16.85;100.00
75895;BME280;64573;50.328;15.014;2023-08-06T13:25:30;97628.38;;;17.14;100.00
75895;BME280;64573;50.328;15.014;2023-08-06T13:27:55;97639.81;;;17.21;100.00
75895;BME280;64573;50.328;15.014;2023-08-06T13:30:21;97629.03;;;17.26;100.00
75895;BME280;64573;50.328;15.014;2023-08-06T13:32:48;97631.81;;;17.36;100.00
75895;BME280;64573;50.328;15.014;2023-08-06T13:35:14;97640.63;;;17.49;100.00
75895;BME280;64573;50.328;15.014;2023-08-06T13:37:40;97646.19;;;17.37;100.00
75895;BME280;64573;50.328;15.014;2023-08-06T13:45:16;97644.88;;;16.86;100.00
75895;BME280;64573;50.328;15.014;2023-08-06T13:47:41;97649.38;;;16.58;100.00
75895;BME280;64573;50.328;15.014;2023-08-06T13:50:07;97641.25;;;16.58;100.00
75895;BME280;64573;50.328;15.014;2023-08-06T13:52:33;97644.56;;;16.60;100.00
75895;BME280;64573;50.328;15.014;2023-08-06T13:54:58;97639.66;;;16.79;100.00
75895;BME280;64573;50.328;15.014;2023-08-06T13:57:24;97650.94;;;16.71;100.00
75895;BME280;64573;50.328;15.014;2023-08-06T13:59:49;97642.47;;;16.67;100.00
75895;BME280;64573;50.328;15.014;2023-08-06T14:02:14;97653.31;;;16.89;100.00
75895;BME280;64573;50.328;15.014;2023-08-06T14:04:40;97654.06;;;16.85;100.00
75895;BME280;64573;50.328;15.014;2023-08-06T14:07:05;97651.38;;;17.12;100.00
75895;BME280;64573;50.328;15.014;2023-08-06T14:09:31;97646.78;;;17.12;100.00
75895;BME280;64573;50.328;15.014;2023-08-06T14:11:56;97646.72;;;17.07;100.00
75895;BME280;64573;50.328;15.014;2023-08-06T14:14:21;97646.88;;;16.95;100.00
75895;BME280;64573;50.328;15.014;2023-08-06T14:16:54;97648.31;;;17.03;100.00
75895;BME280;64573;50.328;15.014;2023-08-06T14:19:20;97647.84;;;17.11;100.00
75895;BME280;64573;50.328;15.014;2023-08-06T14:21:45;97649.94;;;17.04;100.00
75895;BME280;64573;50.328;15.014;2023-08-06T14:24:11;97648.78;;;16.95;100.00
75895;BME280;64573;50.328;15.014;2023-08-06T14:26:37;97651.63;;;16.83;100.00
75895;BME280;64573;50.328;15.014;2023-08-06T14:29:02;97652.44;;;16.84;100.00
75895;BME280;64573;50.328;15.014;2023-08-06T14:31:28;97653.41;;;16.99;100.00
75895;BME280;64573;50.328;15.014;2023-08-06T14:33:53;97653.94;;;16.96;100.00
75895;BME280;64573;50.328;15.014;2023-08-06T14:36:19;97667.84;;;17.05;100.00
75895;BME280;64573;50.328;15.014;2023-08-06T14:38:44;97662.56;;;17.20;100.00
75895;BME280;64573;50.328;15.014;2023-08-06T14:41:10;97664.56;;;17.03;100.00
75895;BME280;64573;50.328;15.014;2023-08-06T14:43:36;97663.94;;;16.96;100.00
75895;BME280;64573;50.328;15.014;2023-08-06T14:46:01;97670.13;;;16.91;100.00
75895;BME280;64573;50.328;15.014;2023-08-06T14:48:27;97672.06;;;16.96;100.00
75895;BME280;64573;50.328;15.014;2023-08-06T14:50:53;97679.13;;;16.97;100.00
75895;BME280;64573;50.328;15.014;2023-08-06T14:53:19;97674.38;;;16.87;100.00
75895;BME280;64573;50.328;15.014;2023-08-06T14:55:44;97680.25;;;16.79;100.00
75895;BME280;64573;50.328;15.014;2023-08-06T14:58:09;97682.47;;;16.82;100.00
75895;BME280;64573;50.328;15.014;2023-08-06T15:00:35;97681.41;;;16.83;100.00
75895;BME280;64573;50.328;15.014;2023-08-06T15:03:00;97682.84;;;16.91;100.00
75895;BME280;64573;50.328;15.014;2023-08-06T15:05:26;97681.28;;;16.95;100.00
75895;BME280;64573;50.328;15.014;2023-08-06T15:07:53;97678.56;;;16.95;100.00
75895;BME280;64573;50.328;15.014;2023-08-06T15:10:19;97684.66;;;16.85;100.00
75895;BME280;64573;50.328;15.014;2023-08-06T15:12:44;97680.03;;;16.80;100.00
75895;BME280;64573;50.328;15.014;2023-08-06T15:15:10;97676.34;;;16.92;100.00
75895;BME280;64573;50.328;15.014;2023-08-06T15:17:35;97676.34;;;16.92;100.00
75895;BME280;64573;50.328;15.014;2023-08-06T15:20:01;97672.72;;;16.81;100.00
75895;BME280;64573;50.328;15.014;2023-08-06T15:22:26;97683.34;;;16.88;100.00
75895;BME280;64573;50.328;15.014;2023-08-06T15:24:52;97681.59;;;16.76;100.00
75895;BME280;64573;50.328;15.014;2023-08-06T15:27:17;97684.09;;;16.83;100.00
75895;BME280;64573;50.328;15.014;2023-08-06T15:29:43;97686.81;;;16.83;100.00
75895;BME280;64573;50.328;15.014;2023-08-06T15:32:09;97687.94;;;16.87;100.00
75895;BME280;64573;50.328;15.014;2023-08-06T15:34:35;97686.44;;;16.74;100.00
75895;BME280;64573;50.328;15.014;2023-08-06T15:37:00;97680.69;;;16.71;100.00
75895;BME280;64573;50.328;15.014;2023-08-06T15:39:25;97687.31;;;16.80;100.00
75895;BME280;64573;50.328;15.014;2023-08-06T15:41:51;97680.31;;;16.84;100.00
75895;BME280;64573;50.328;15.014;2023-08-06T15:44:16;97682.78;;;16.86;100.00
75895;BME280;64573;50.328;15.014;2023-08-06T15:46:41;97684.19;;;16.88;100.00
75895;BME280;64573;50.328;15.014;2023-08-06T15:49:07;97683.09;;;16.89;100.00
75895;BME280;64573;50.328;15.014;2023-08-06T15:51:32;97678.97;;;17.08;100.00
75895;BME280;64573;50.328;15.014;2023-08-06T15:53:58;97687.91;;;17.09;100.00
75895;BME280;64573;50.328;15.014;2023-08-06T15:56:23;97684.84;;;17.00;100.00
75895;BME280;64573;50.328;15.014;2023-08-06T15:58:48;97683.06;;;17.11;100.00
75895;BME280;64573;50.328;15.014;2023-08-06T16:01:14;97679.34;;;17.17;100.00
75895;BME280;64573;50.328;15.014;2023-08-06T16:03:39;97673.66;;;17.19;100.00
75895;BME280;64573;50.328;15.014;2023-08-06T16:06:08;97677.00;;;17.26;100.00
75895;BME280;64573;50.328;15.014;2023-08-06T16:08:34;97670.47;;;17.54;100.00
75895;BME280;64573;50.328;15.014;2023-08-06T16:10:59;97664.69;;;17.45;100.00
75895;BME280;64573;50.328;15.014;2023-08-06T16:13:25;97659.00;;;17.74;100.00
75895;BME280;64573;50.328;15.014;2023-08-06T16:15:50;97657.09;;;17.74;100.00
75895;BME280;64573;50.328;15.014;2023-08-06T16:18:16;97651.31;;;17.98;100.00
75895;BME280;64573;50.328;15.014;2023-08-06T16:20:43;97645.31;;;17.90;100.00
75895;BME280;64573;50.328;15.014;2023-08-06T16:23:09;97644.19;;;17.86;100.00
75895;BME280;64573;50.328;15.014;2023-08-06T16:25:39;97645.56;;;17.89;100.00
75895;BME280;64573;50.328;15.014;2023-08-06T16:28:05;97648.63;;;17.98;100.00
75895;BME280;64573;50.328;15.014;2023-08-06T16:30:30;97652.91;;;17.94;100.00
75895;BME280;64573;50.328;15.014;2023-08-06T16:32:58;97650.31;;;18.09;100.00
75895;BME280;64573;50.328;15.014;2023-08-06T16:35:27;97649.75;;;18.07;100.00
75895;BME280;64573;50.328;15.014;2023-08-06T16:37:52;97646.44;;;18.00;100.00
75895;BME280;64573;50.328;15.014;2023-08-06T16:40:17;97660.66;;;18.12;100.00
75895;BME280;64573;50.328;15.014;2023-08-06T16:42:43;97657.69;;;18.18;100.00
75895;BME280;64573;50.328;15.014;2023-08-06T16:45:08;97653.59;;;18.11;100.00
75895;BME280;64573;50.328;15.014;2023-08-06T16:47:34;97654.41;;;18.11;100.00
75895;BME280;64573;50.328;15.014;2023-08-06T16:49:59;97651.69;;;18.16;100.00
75895;BME280;64573;50.328;15.014;2023-08-06T16:52:24;97648.47;;;18.19;100.00
75895;BME280;64573;50.328;15.014;2023-08-06T16:54:50;97651.56;;;18.38;100.00
75895;BME280;64573;50.328;15.014;2023-08-06T16:57:15;97650.38;;;18.19;100.00
75895;BME280;64573;50.328;15.014;2023-08-06T16:59:41;97652.34;;;18.34;100.00
75895;BME280;64573;50.328;15.014;2023-08-06T17:06:56;97652.66;;;18.42;100.00
75895;BME280;64573;50.328;15.014;2023-08-06T17:09:22;97651.38;;;18.55;100.00
75895;BME280;64573;50.328;15.014;2023-08-06T17:11:47;97643.72;;;18.42;100.00
75895;BME280;64573;50.328;15.014;2023-08-06T17:14:13;97639.56;;;18.29;100.00
75895;BME280;64573;50.328;15.014;2023-08-06T17:16:39;97638.56;;;18.45;100.00
75895;BME280;64573;50.328;15.014;2023-08-06T17:19:04;97639.44;;;18.61;100.00
75895;BME280;64573;50.328;15.014;2023-08-06T17:21:29;97645.22;;;18.75;100.00
75895;BME280;64573;50.328;15.014;2023-08-06T17:23:55;97643.22;;;18.55;100.00
75895;BME280;64573;50.328;15.014;2023-08-06T17:26:20;97667.19;;;18.21;100.00
75895;BME280;64573;50.328;15.014;2023-08-06T17:28:45;97690.13;;;17.39;100.00
75895;BME280;64573;50.328;15.014;2023-08-06T17:31:11;97686.06;;;16.88;100.00
75895;BME280;64573;50.328;15.014;2023-08-06T17:33:37;97680.00;;;16.59;100.00
75895;BME280;64573;50.328;15.014;2023-08-06T17:36:02;97681.81;;;16.53;100.00
75895;BME280;64573;50.328;15.014;2023-08-06T17:38:28;97677.88;;;16.66;100.00
75895;BME280;64573;50.328;15.014;2023-08-06T17:40:54;97678.25;;;16.69;100.00
75895;BME280;64573;50.328;15.014;2023-08-06T17:43:20;97675.78;;;16.29;100.00
75895;BME280;64573;50.328;15.014;2023-08-06T17:45:45;97677.03;;;16.38;100.00
75895;BME280;64573;50.328;15.014;2023-08-06T17:48:11;97684.19;;;16.49;100.00
75895;BME280;64573;50.328;15.014;2023-08-06T17:50:40;97690.22;;;16.57;100.00
75895;BME280;64573;50.328;15.014;2023-08-06T17:53:06;97687.47;;;16.51;100.00
75895;BME280;64573;50.328;15.014;2023-08-06T17:55:31;97691.22;;;16.50;100.00
75895;BME280;64573;50.328;15.014;2023-08-06T17:57:56;97685.00;;;16.50;100.00
75895;BME280;64573;50.328;15.014;2023-08-06T18:00:22;97680.84;;;16.42;100.00
75895;BME280;64573;50.328;15.014;2023-08-06T18:02:47;97698.66;;;16.38;100.00
75895;BME280;64573;50.328;15.014;2023-08-06T18:05:13;97692.66;;;16.36;100.00
75895;BME280;64573;50.328;15.014;2023-08-06T18:07:44;97686.94;;;16.33;100.00
75895;BME280;64573;50.328;15.014;2023-08-06T18:10:12;97686.31;;;16.25;100.00
75895;BME280;64573;50.328;15.014;2023-08-06T18:12:38;97692.97;;;16.18;100.00
75895;BME280;64573;50.328;15.014;2023-08-06T18:15:08;97687.47;;;16.13;100.00
75895;BME280;64573;50.328;15.014;2023-08-06T18:17:33;97690.44;;;16.11;100.00
75895;BME280;64573;50.328;15.014;2023-08-06T18:19:59;97691.41;;;16.05;100.00
75895;BME280;64573;50.328;15.014;2023-08-06T18:22:24;97678.56;;;15.95;100.00
75895;BME280;64573;50.328;15.014;2023-08-06T18:24:50;97691.91;;;15.85;100.00
75895;BME280;64573;50.328;15.014;2023-08-06T18:27:15;97695.69;;;15.84;100.00
75895;BME280;64573;50.328;15.014;2023-08-06T18:29:43;97690.78;;;15.81;100.00
75895;BME280;64573;50.328;15.014;2023-08-06T18:32:08;97689.06;;;15.75;100.00
75895;BME280;64573;50.328;15.014;2023-08-06T18:34:34;97689.88;;;15.76;100.00
75895;BME280;64573;50.328;15.014;2023-08-06T18:37:00;97699.38;;;15.78;100.00
75895;BME280;64573;50.328;15.014;2023-08-06T18:39:25;97705.94;;;15.82;100.00
75895;BME280;64573;50.328;15.014;2023-08-06T18:41:51;97706.84;;;15.88;100.00
75895;BME280;64573;50.328;15.014;2023-08-06T18:44:17;97702.09;;;15.95;100.00
75895;BME280;64573;50.328;15.014;2023-08-06T18:46:43;97708.31;;;15.95;100.00
75895;BME280;64573;50.328;15.014;2023-08-06T18:49:08;97711.06;;;16.00;100.00
75895;BME280;64573;50.328;15.014;2023-08-06T18:53:59;97721.31;;;15.98;100.00
75895;BME280;64573;50.328;15.014;2023-08-06T18:56:24;97724.84;;;15.82;100.00
75895;BME280;64573;50.328;15.014;2023-08-06T18:58:49;97732.72;;;15.55;100.00
75895;BME280;64573;50.328;15.014;2023-08-06T19:01:15;97735.06;;;15.63;100.00
75895;BME280;64573;50.328;15.014;2023-08-06T19:03:40;97733.03;;;15.70;100.00
75895;BME280;64573;50.328;15.014;2023-08-06T19:06:07;97726.25;;;15.56;100.00
75895;BME280;64573;50.328;15.014;2023-08-06T19:08:34;97738.69;;;15.40;100.00
75895;BME280;64573;50.328;15.014;2023-08-06T19:11:01;97734.50;;;15.33;100.00
75895;BME280;64573;50.328;15.014;2023-08-06T19:13:26;97737.59;;;15.25;100.00
75895;BME280;64573;50.328;15.014;2023-08-06T19:15:52;97732.09;;;15.20;100.00
75895;BME280;64573;50.328;15.014;2023-08-06T19:18:17;97722.72;;;15.10;100.00
75895;BME280;64573;50.328;15.014;2023-08-06T19:20:44;97717.09;;;15.12;100.00
75895;BME280;64573;50.328;15.014;2023-08-06T19:23:09;97713.00;;;15.09;100.00
75895;BME280;64573;50.328;15.014;2023-08-06T19:25:45;97715.19;;;15.12;100.00
75895;BME280;64573;50.328;15.014;2023-08-06T19:28:12;97706.44;;;15.05;100.00
75895;BME280;64573;50.328;15.014;2023-08-06T19:30:40;97708.41;;;15.10;100.00
75895;BME280;64573;50.328;15.014;2023-08-06T19:33:10;97709.22;;;15.10;100.00
75895;BME280;64573;50.328;15.014;2023-08-06T19:38:12;97719.38;;;14.92;100.00
75895;BME280;64573;50.328;15.014;2023-08-06T19:40:37;97727.03;;;14.95;100.00
75895;BME280;64573;50.328;15.014;2023-08-06T19:45:32;97717.06;;;14.83;100.00
75895;BME280;64573;50.328;15.014;2023-08-06T19:47:58;97721.41;;;14.84;100.00
75895;BME280;64573;50.328;15.014;2023-08-06T19:50:23;97725.28;;;14.77;100.00
75895;BME280;64573;50.328;15.014;2023-08-06T19:52:48;97722.13;;;14.80;100.00
75895;BME280;64573;50.328;15.014;2023-08-06T19:55:14;97722.94;;;14.80;100.00
75895;BME280;64573;50.328;15.014;2023-08-06T19:57:39;97723.91;;;14.74;100.00
75895;BME280;64573;50.328;15.014;2023-08-06T20:00:05;97722.38;;;14.78;100.00
75895;BME280;64573;50.328;15.014;2023-08-06T20:02:30;97724.47;;;14.76;100.00
75895;BME280;64573;50.328;15.014;2023-08-06T20:04:56;97732.13;;;14.79;100.00
75895;BME280;64573;50.328;15.014;2023-08-06T20:07:21;97724.59;;;14.70;100.00
75895;BME280;64573;50.328;15.014;2023-08-06T20:09:47;97728.03;;;14.65;100.00
75895;BME280;64573;50.328;15.014;2023-08-06T20:12:12;97717.31;;;14.70;100.00
75895;BME280;64573;50.328;15.014;2023-08-06T20:17:07;97715.00;;;14.62;100.00
75895;BME280;64573;50.328;15.014;2023-08-06T20:19:32;97724.53;;;14.65;100.00
75895;BME280;64573;50.328;15.014;2023-08-06T20:21:58;97720.06;;;14.58;100.00
75895;BME280;64573;50.328;15.014;2023-08-06T20:24:23;97715.81;;;14.62;100.00
75895;BME280;64573;50.328;15.014;2023-08-06T20:26:48;97715.25;;;14.60;100.00
75895;BME280;64573;50.328;15.014;2023-08-06T20:29:14;97720.88;;;14.59;100.00
75895;BME280;64573;50.328;15.014;2023-08-06T20:31:39;97719.56;;;14.61;100.00
75895;BME280;64573;50.328;15.014;2023-08-06T20:34:05;97708.78;;;14.61;100.00
75895;BME280;64573;50.328;15.014;2023-08-06T20:36:30;97717.38;;;14.58;100.00
75895;BME280;64573;50.328;15.014;2023-08-06T20:38:56;97720.31;;;14.57;100.00
75895;BME280;64573;50.328;15.014;2023-08-06T20:41:21;97712.44;;;14.55;100.00
75895;BME280;64573;50.328;15.014;2023-08-06T20:43:46;97723.22;;;14.55;100.00
75895;BME280;64573;50.328;15.014;2023-08-06T20:46:12;97717.63;;;14.57;100.00
75895;BME280;64573;50.328;15.014;2023-08-06T20:48:37;97723.00;;;14.57;100.00
75895;BME280;64573;50.328;15.014;2023-08-06T20:51:02;97724.88;;;14.56;100.00
75895;BME280;64573;50.328;15.014;2023-08-06T20:53:28;97727.34;;;14.58;100.00
75895;BME280;64573;50.328;15.014;2023-08-06T20:56:00;97732.38;;;14.54;100.00
75895;BME280;64573;50.328;15.014;2023-08-06T20:58:26;97727.59;;;14.56;100.00
75895;BME280;64573;50.328;15.014;2023-08-06T21:00:53;97725.34;;;14.53;100.00
75895;BME280;64573;50.328;15.014;2023-08-06T21:03:21;97725.84;;;14.50;100.00
75895;BME280;64573;50.328;15.014;2023-08-06T21:06:00;97724.19;;;14.49;100.00
75895;BME280;64573;50.328;15.014;2023-08-06T21:08:26;97718.06;;;14.54;100.00
75895;BME280;64573;50.328;15.014;2023-08-06T21:10:51;97724.41;;;14.48;100.00
75895;BME280;64573;50.328;15.014;2023-08-06T21:13:17;97731.47;;;14.49;100.00
75895;BME280;64573;50.328;15.014;2023-08-06T21:15:42;97736.38;;;14.52;100.00
75895;BME280;64573;50.328;15.014;2023-08-06T21:18:07;97744.13;;;14.48;100.00
75895;BME280;64573;50.328;15.014;2023-08-06T21:20:33;97724.66;;;14.46;100.00
75895;BME280;64573;50.328;15.014;2023-08-06T21:22:58;97728.03;;;14.53;100.00
75895;BME280;64573;50.328;15.014;2023-08-06T21:25:24;97731.31;;;14.44;100.00
75895;BME280;64573;50.328;15.014;2023-08-06T21:27:49;97737.31;;;14.46;100.00
75895;BME280;64573;50.328;15.014;2023-08-06T21:30:15;97744.13;;;14.48;100.00
75895;BME280;64573;50.328;15.014;2023-08-06T21:32:40;97755.22;;;14.40;100.00
75895;BME280;64573;50.328;15.014;2023-08-06T21:35:06;97747.38;;;14.39;100.00
75895;BME280;64573;50.328;15.014;2023-08-06T21:37:31;97750.19;;;14.32;100.00
75895;BME280;64573;50.328;15.014;2023-08-06T21:39:56;97738.25;;;14.28;100.00
75895;BME280;64573;50.328;15.014;2023-08-06T21:42:22;97747.84;;;14.24;100.00
75895;BME280;64573;50.328;15.014;2023-08-06T21:44:47;97754.56;;;14.21;100.00
75895;BME280;64573;50.328;15.014;2023-08-06T21:47:13;97756.44;;;14.21;100.00
75895;BME280;64573;50.328;15.014;2023-08-06T21:49:39;97758.31;;;14.20;100.00
75895;BME280;64573;50.328;15.014;2023-08-06T21:52:05;97759.56;;;14.18;100.00
75895;BME280;64573;50.328;15.014;2023-08-06T21:54:30;97757.94;;;14.17;100.00
75895;BME280;64573;50.328;15.014;2023-08-06T21:56:55;97768.47;;;14.18;100.00
75895;BME280;64573;50.328;15.014;2023-08-06T21:59:23;97770.03;;;14.14;100.00
75895;BME280;64573;50.328;15.014;2023-08-06T22:01:48;97758.53;;;14.07;100.00
75895;BME280;64573;50.328;15.014;2023-08-06T22:04:14;97764.25;;;13.99;100.00
75895;BME280;64573;50.328;15.014;2023-08-06T22:06:39;97765.09;;;13.99;100.00
75895;BME280;64573;50.328;15.014;2023-08-06T22:09:04;97755.00;;;13.95;100.00
75895;BME280;64573;50.328;15.014;2023-08-06T22:11:30;97767.06;;;13.92;100.00
75895;BME280;64573;50.328;15.014;2023-08-06T22:13:55;97767.31;;;13.91;100.00
75895;BME280;64573;50.328;15.014;2023-08-06T22:16:20;97765.19;;;13.93;100.00
75895;BME280;64573;50.328;15.014;2023-08-06T22:18:46;97766.25;;;13.92;100.00
75895;BME280;64573;50.328;15.014;2023-08-06T22:21:11;97764.38;;;13.92;100.00